Weather at Nason Hill Heliport

Public forecast

Using degrees Fahrenheit for public forecast. Weather courtesy of forecast.io.

Closest aviation weather report (METAR) to Nason Hill Heliport

Closest report is Norwood Memorial Airport, 9.2 nm (17.1 km) E. Retrieved 2020/09/21 00:53 UTC (1 hour ago):

KOWD 210053Z 00000KT 10SM CLR 05/01 A3056 RMK AO2 SLP348 T00500011

Closest aviation forecast (TAF) to Nason Hill Heliport

Closest forecast is Laurence G Hanscom Field, 16.4 nm (30.3 km) NNE. Retrieved 2020-09-21 00:27 UTC (1 hour ago):

TAF KBED 202324Z 2100/2124 08004KT P6SM SKC FM210200 00000KT P6SM SKC FM211500 04012KT P6SM SKC FM212200 06006KT P6SM SKC